createdAt,value
2022-12-01T00:00:41.216Z,85.93
2022-12-01T00:01:41.879Z,86.02
2022-12-01T00:02:42.598Z,86.13
2022-12-01T00:03:43.310Z,86.33
2022-12-01T00:04:43.876Z,86.33
2022-12-01T00:05:44.445Z,86.43
2022-12-01T00:06:45.019Z,86.43
2022-12-01T00:07:45.665Z,86.53
2022-12-01T00:08:46.381Z,86.63
2022-12-01T00:09:47.368Z,86.73
2022-12-01T00:10:47.689Z,86.83
2022-12-01T00:11:48.260Z,87.04
2022-12-01T00:12:48.832Z,87.14
2022-12-01T00:13:49.532Z,87.24
2022-12-01T00:14:50.097Z,87.45
2022-12-01T00:15:50.672Z,87.65
2022-12-01T00:16:51.296Z,87.74
2022-12-01T00:17:51.897Z,87.74
2022-12-01T00:18:52.505Z,87.89
2022-12-01T00:19:53.081Z,87.79
2022-12-01T00:20:53.652Z,87.48
2022-12-01T00:21:54.229Z,87.08
2022-12-01T00:22:54.811Z,86.77
2022-12-01T00:23:55.553Z,86.57
2022-12-01T00:24:56.131Z,86.37
2022-12-01T00:25:56.696Z,86.31
2022-12-01T00:26:57.270Z,86.10
2022-12-01T00:27:57.847Z,86.10
2022-12-01T00:28:58.592Z,85.90
2022-12-01T00:29:59.169Z,85.80
2022-12-01T00:30:59.753Z,85.70
2022-12-01T00:32:00.464Z,85.50
2022-12-01T00:33:01.076Z,85.39
2022-12-01T00:34:03.805Z,85.39
2022-12-01T00:35:02.161Z,85.30
2022-12-01T00:36:02.736Z,85.30
2022-12-01T00:37:03.311Z,85.39
2022-12-01T00:38:03.888Z,85.39
2022-12-01T00:39:04.497Z,85.50
2022-12-01T00:40:05.074Z,85.50
2022-12-01T00:41:05.660Z,85.50
2022-12-01T00:42:10.144Z,85.60
2022-12-01T00:43:07.151Z,85.60
2022-12-01T00:44:07.790Z,85.80
2022-12-01T00:45:08.361Z,85.90
2022-12-01T00:46:09.036Z,85.90
2022-12-01T00:47:09.647Z,86.00
2022-12-01T00:48:10.216Z,86.21
2022-12-01T00:49:10.891Z,86.21
2022-12-01T00:50:11.464Z,86.31
2022-12-01T00:51:12.044Z,86.41
2022-12-01T00:52:12.630Z,86.41
2022-12-01T00:53:13.197Z,86.51
2022-12-01T00:54:13.815Z,86.51
2022-12-01T00:55:14.408Z,86.41
2022-12-01T00:56:14.975Z,86.41
2022-12-01T00:57:15.544Z,86.31
2022-12-01T00:58:16.113Z,86.31
2022-12-01T00:59:16.770Z,86.21
2022-12-01T01:00:17.332Z,86.21
2022-12-01T01:01:17.981Z,86.10
2022-12-01T01:02:18.694Z,86.10
2022-12-01T01:03:19.321Z,85.90
2022-12-01T01:04:20.009Z,85.90
2022-12-01T01:05:20.598Z,85.70
2022-12-01T01:06:21.177Z,85.80
2022-12-01T01:07:21.884Z,85.60
2022-12-01T01:08:22.490Z,85.60
2022-12-01T01:09:23.135Z,85.24
2022-12-01T01:10:23.704Z,85.19
2022-12-01T01:11:24.274Z,85.24
2022-12-01T01:12:24.850Z,85.19
2022-12-01T01:13:25.430Z,85.30
2022-12-01T01:14:26.336Z,85.30
2022-12-01T01:15:26.912Z,85.39
2022-12-01T01:16:27.567Z,85.39
2022-12-01T01:17:28.206Z,85.50
2022-12-01T01:18:28.778Z,85.60
2022-12-01T01:19:29.388Z,85.70
2022-12-01T01:20:29.957Z,85.80
2022-12-01T01:21:30.523Z,85.80
2022-12-01T01:22:31.097Z,86.10
2022-12-01T01:23:31.674Z,86.21
2022-12-01T01:24:32.422Z,86.31
2022-12-01T01:25:32.990Z,86.31
2022-12-01T01:26:33.572Z,86.41
2022-12-01T01:27:34.143Z,86.41
2022-12-01T01:28:34.716Z,86.41
2022-12-01T01:29:35.373Z,86.41
2022-12-01T01:30:36.005Z,86.41
2022-12-01T01:31:36.609Z,86.51
2022-12-01T01:32:37.180Z,86.51
2022-12-01T01:33:37.749Z,86.51
2022-12-01T01:34:38.473Z,86.51
2022-12-01T01:35:39.043Z,86.51
2022-12-01T01:36:39.620Z,86.61
2022-12-01T01:37:40.193Z,86.61
2022-12-01T01:38:40.762Z,86.61
2022-12-01T01:39:41.366Z,86.71
2022-12-01T01:40:41.935Z,86.82
2022-12-01T01:41:42.499Z,86.82
2022-12-01T01:42:43.063Z,86.91
2022-12-01T01:43:43.641Z,86.91
2022-12-01T01:44:44.330Z,87.02
2022-12-01T01:45:44.934Z,87.02
2022-12-01T01:46:45.523Z,87.02
2022-12-01T01:47:46.095Z,87.12
2022-12-01T01:48:46.670Z,87.12
2022-12-01T01:49:47.491Z,87.12
2022-12-01T01:50:47.741Z,87.12
2022-12-01T01:51:48.356Z,87.12
2022-12-01T01:52:48.933Z,87.12
2022-12-01T01:53:49.501Z,87.12
2022-12-01T01:54:50.120Z,87.12
2022-12-01T01:55:50.696Z,87.12
2022-12-01T01:56:51.262Z,87.12
2022-12-01T01:57:51.829Z,87.12
2022-12-01T01:58:52.432Z,87.12
2022-12-01T01:59:53.162Z,87.12
2022-12-01T02:00:53.786Z,86.71
2022-12-01T02:01:54.375Z,86.51
2022-12-01T02:02:55.071Z,86.41
2022-12-01T02:03:55.682Z,86.35
2022-12-01T02:04:56.376Z,86.21
2022-12-01T02:06:00.535Z,86.21
2022-12-01T02:06:57.862Z,86.10
2022-12-01T02:07:58.498Z,86.05
2022-12-01T02:08:59.133Z,85.84
2022-12-01T02:09:59.777Z,85.74
2022-12-01T02:11:00.355Z,85.74
2022-12-01T02:12:00.934Z,85.53
2022-12-01T02:13:01.501Z,85.44
2022-12-01T02:14:02.078Z,85.24
2022-12-01T02:15:02.810Z,85.33
2022-12-01T02:16:03.377Z,85.33
2022-12-01T02:17:04.018Z,85.13
2022-12-01T02:18:04.625Z,85.24
2022-12-01T02:19:05.199Z,85.03
2022-12-01T02:20:05.816Z,85.03
2022-12-01T02:21:06.377Z,85.09
2022-12-01T02:22:06.953Z,84.93
2022-12-01T02:23:07.523Z,84.89
2022-12-01T02:24:08.094Z,84.89
2022-12-01T02:25:08.846Z,84.78
2022-12-01T02:26:09.428Z,84.69
2022-12-01T02:27:10.007Z,84.58
2022-12-01T02:28:10.580Z,84.48
2022-12-01T02:29:11.153Z,84.28
2022-12-01T02:30:11.821Z,84.22
2022-12-01T02:31:14.958Z,84.32
2022-12-01T02:32:13.323Z,84.32
2022-12-01T02:33:13.927Z,84.22
2022-12-01T02:34:14.504Z,84.01
2022-12-01T02:35:15.214Z,83.98
2022-12-01T02:36:15.791Z,84.12
2022-12-01T02:37:16.354Z,84.08
2022-12-01T02:38:16.943Z,84.18
2022-12-01T02:39:17.519Z,84.18
2022-12-01T02:40:18.186Z,84.18
2022-12-01T02:41:18.760Z,84.08
2022-12-01T02:42:19.343Z,84.08
2022-12-01T02:43:19.926Z,84.08
2022-12-01T02:44:20.497Z,83.98
2022-12-01T02:45:21.115Z,83.87
2022-12-01T02:46:21.735Z,83.87
2022-12-01T02:47:22.359Z,83.87
2022-12-01T02:48:22.922Z,84.01
2022-12-01T02:49:23.489Z,84.12
2022-12-01T02:50:24.083Z,84.12
2022-12-01T02:51:24.661Z,84.22
2022-12-01T02:52:25.246Z,84.32
2022-12-01T02:53:25.815Z,84.42
2022-12-01T02:54:26.390Z,84.42
2022-12-01T02:55:27.018Z,84.42
2022-12-01T02:56:27.591Z,84.52
2022-12-01T02:57:28.166Z,84.63
2022-12-01T02:58:28.740Z,84.72
2022-12-01T02:59:29.308Z,84.72
2022-12-01T03:00:29.962Z,84.63
2022-12-01T03:01:30.633Z,84.63
2022-12-01T03:02:31.301Z,84.63
2022-12-01T03:03:31.920Z,84.72
2022-12-01T03:04:32.493Z,84.72
2022-12-01T03:05:33.150Z,84.72
2022-12-01T03:06:33.717Z,84.72
2022-12-01T03:07:34.360Z,84.66
2022-12-01T03:08:34.988Z,84.66
2022-12-01T03:09:35.555Z,84.66
2022-12-01T03:10:36.266Z,84.77
2022-12-01T03:11:36.833Z,84.87
2022-12-01T03:12:37.408Z,85.07
2022-12-01T03:13:37.996Z,84.97
2022-12-01T03:14:38.567Z,85.07
2022-12-01T03:15:39.234Z,85.07
2022-12-01T03:16:39.813Z,85.17
2022-12-01T03:17:40.388Z,85.17
2022-12-01T03:18:40.960Z,85.27
2022-12-01T03:19:41.526Z,85.27
2022-12-01T03:20:42.129Z,85.17
2022-12-01T03:21:42.719Z,85.17
2022-12-01T03:22:43.294Z,85.17
2022-12-01T03:23:43.884Z,85.07
2022-12-01T03:24:44.468Z,85.17
2022-12-01T03:25:45.113Z,85.17
2022-12-01T03:26:45.677Z,85.27
2022-12-01T03:28:13.413Z,85.38
2022-12-01T03:28:47.155Z,85.52
2022-12-01T03:29:48.141Z,85.41
2022-12-01T03:30:48.616Z,85.52
2022-12-01T03:31:49.248Z,85.62
2022-12-01T03:32:49.819Z,85.62
2022-12-01T03:33:50.402Z,85.62
2022-12-01T03:34:51.924Z,85.72
2022-12-01T03:35:51.619Z,85.72
2022-12-01T03:36:52.199Z,85.82
2022-12-01T03:37:52.781Z,85.82
2022-12-01T03:38:53.349Z,85.82
2022-12-01T03:39:58.766Z,85.92
2022-12-01T03:40:54.925Z,85.92
2022-12-01T03:41:55.498Z,86.02
2022-12-01T03:42:56.067Z,86.02
2022-12-01T03:43:56.651Z,86.13
2022-12-01T03:44:57.214Z,86.13
2022-12-01T03:45:58.153Z,86.02
2022-12-01T03:46:58.300Z,85.92
2022-12-01T03:47:58.871Z,85.92
2022-12-01T03:48:59.448Z,85.82
2022-12-01T03:50:00.023Z,85.82
2022-12-01T03:51:00.640Z,85.62
2022-12-01T03:52:01.217Z,85.52
2022-12-01T03:53:01.793Z,85.52
2022-12-01T03:54:02.356Z,85.41
2022-12-01T03:55:02.929Z,85.41
2022-12-01T03:56:03.531Z,85.41
2022-12-01T03:57:04.108Z,85.41
2022-12-01T03:58:04.684Z,85.41
2022-12-01T03:59:05.256Z,85.52
2022-12-01T04:00:05.830Z,85.62
2022-12-01T04:01:06.507Z,85.62
2022-12-01T04:02:07.199Z,85.72
2022-12-01T04:03:07.868Z,85.72
2022-12-01T04:04:08.456Z,85.72
2022-12-01T04:05:09.026Z,85.52
2022-12-01T04:06:09.676Z,85.41
2022-12-01T04:07:10.252Z,85.21
2022-12-01T04:08:10.969Z,85.01
2022-12-01T04:09:11.585Z,84.80
2022-12-01T04:10:12.160Z,84.80
2022-12-01T04:11:12.816Z,84.60
2022-12-01T04:12:13.389Z,84.60
2022-12-01T04:13:13.964Z,84.70
2022-12-01T04:14:14.533Z,84.80
2022-12-01T04:15:15.109Z,84.91
2022-12-01T04:16:15.794Z,85.11
2022-12-01T04:17:16.407Z,85.11
2022-12-01T04:18:16.991Z,85.11
2022-12-01T04:19:17.567Z,85.11
2022-12-01T04:20:18.137Z,85.21
2022-12-01T04:21:18.817Z,85.21
2022-12-01T04:22:19.388Z,85.21
2022-12-01T04:23:19.966Z,85.27
2022-12-01T04:24:20.541Z,85.27
2022-12-01T04:25:21.117Z,85.38
2022-12-01T04:26:21.875Z,85.47
2022-12-01T04:27:22.437Z,85.58
2022-12-01T04:28:23.014Z,85.58
2022-12-01T04:29:23.594Z,85.68
2022-12-01T04:30:24.166Z,85.58
2022-12-01T04:31:25.007Z,85.58
2022-12-01T04:32:25.625Z,85.58
2022-12-01T04:33:26.199Z,85.47
2022-12-01T04:34:26.775Z,85.47
2022-12-01T04:35:27.353Z,85.47
2022-12-01T04:36:28.186Z,85.58
2022-12-01T04:37:28.764Z,85.58
2022-12-01T04:38:31.091Z,85.58
2022-12-01T04:39:30.277Z,85.58
2022-12-01T04:40:30.850Z,85.68
2022-12-01T04:41:31.450Z,85.68
2022-12-01T04:42:32.022Z,85.68
2022-12-01T04:43:32.598Z,85.78
2022-12-01T04:44:35.155Z,85.74
2022-12-01T04:45:33.931Z,85.78
2022-12-01T04:46:34.629Z,85.74
2022-12-01T04:47:35.226Z,85.84
2022-12-01T04:48:35.797Z,85.74
2022-12-01T04:49:36.382Z,85.84
2022-12-01T04:50:36.969Z,85.74
2022-12-01T04:51:37.571Z,85.84
2022-12-01T04:52:38.141Z,85.94
2022-12-01T04:53:38.707Z,86.05
2022-12-01T04:54:39.279Z,86.15
2022-12-01T04:55:39.860Z,86.19
2022-12-01T04:56:40.528Z,86.19
2022-12-01T04:57:41.088Z,86.29
2022-12-01T04:58:41.671Z,86.29
2022-12-01T04:59:42.241Z,86.29
2022-12-01T05:00:42.904Z,86.39
2022-12-01T05:01:43.717Z,86.49
2022-12-01T05:02:44.258Z,86.69
2022-12-01T05:03:44.837Z,86.80
2022-12-01T05:04:45.420Z,87.00
2022-12-01T05:05:45.996Z,87.20
2022-12-01T05:06:46.644Z,87.40
2022-12-01T05:07:47.217Z,87.40
2022-12-01T05:08:47.839Z,87.40
2022-12-01T05:09:48.802Z,87.40
2022-12-01T05:10:48.952Z,87.40
2022-12-01T05:11:49.525Z,87.40
2022-12-01T05:12:50.056Z,87.40
2022-12-01T05:13:50.589Z,87.30
2022-12-01T05:14:51.100Z,87.30
2022-12-01T05:15:51.673Z,87.30
2022-12-01T05:16:52.307Z,87.26
2022-12-01T05:17:52.819Z,87.26
2022-12-01T05:18:53.391Z,87.16
2022-12-01T05:19:53.928Z,87.16
2022-12-01T05:20:54.443Z,87.06
2022-12-01T05:21:54.987Z,87.06
2022-12-01T05:23:05.428Z,86.96
2022-12-01T05:23:56.358Z,86.96
2022-12-01T05:24:56.874Z,86.96
2022-12-01T05:25:57.390Z,86.86
2022-12-01T05:26:57.978Z,86.86
2022-12-01T05:27:58.498Z,86.86
2022-12-01T05:28:59.020Z,86.86
2022-12-01T05:29:59.537Z,86.76
2022-12-01T05:31:00.082Z,86.65
2022-12-01T05:32:00.756Z,86.45
2022-12-01T05:33:01.378Z,86.35
2022-12-01T05:34:01.922Z,86.25
2022-12-01T05:35:02.435Z,86.25
2022-12-01T05:36:02.952Z,86.25
2022-12-01T05:37:03.598Z,86.35
2022-12-01T05:38:07.767Z,86.45
2022-12-01T05:39:04.766Z,86.45
2022-12-01T05:40:05.277Z,86.45
2022-12-01T05:41:05.801Z,86.55
2022-12-01T05:42:06.382Z,86.55
2022-12-01T05:43:06.913Z,86.55
2022-12-01T05:44:07.426Z,86.45
2022-12-01T05:45:07.947Z,86.35
2022-12-01T05:46:08.514Z,86.25
2022-12-01T05:47:09.201Z,86.25
2022-12-01T05:48:09.726Z,86.25
2022-12-01T05:49:10.551Z,86.25
2022-12-01T05:50:11.140Z,86.15
2022-12-01T05:51:11.723Z,86.05
2022-12-01T05:52:12.300Z,86.05
2022-12-01T05:53:13.912Z,86.15
2022-12-01T05:54:13.712Z,86.05
2022-12-01T05:55:14.222Z,86.25
2022-12-01T05:56:27.204Z,86.25
2022-12-01T05:57:39.943Z,86.35
2022-12-01T05:58:17.344Z,86.45
2022-12-01T05:59:17.025Z,86.55
2022-12-01T06:00:17.836Z,86.55
2022-12-01T06:01:34.075Z,86.55
2022-12-01T06:02:20.589Z,86.65
2022-12-01T06:03:20.337Z,86.65
2022-12-01T06:04:22.364Z,86.65
2022-12-01T06:05:21.569Z,86.65
2022-12-01T06:06:23.491Z,86.65
2022-12-01T06:07:26.085Z,86.65
2022-12-01T06:08:39.320Z,86.65
2022-12-01T06:09:25.581Z,86.76
2022-12-01T06:10:33.293Z,86.86
2022-12-01T06:11:27.477Z,86.96
2022-12-01T06:12:27.164Z,87.06
2022-12-01T06:13:28.115Z,87.16
2022-12-01T06:14:28.825Z,87.16
2022-12-01T06:15:29.396Z,87.22
2022-12-01T06:16:30.073Z,87.22
2022-12-01T06:17:40.711Z,87.12
2022-12-01T06:18:33.188Z,87.12
2022-12-01T06:19:35.535Z,87.12
2022-12-01T06:20:33.167Z,87.22
2022-12-01T06:21:33.813Z,87.12
2022-12-01T06:22:33.867Z,86.47
2022-12-01T06:23:34.556Z,85.70
2022-12-01T06:24:35.080Z,84.89
2022-12-01T06:25:35.612Z,83.98
2022-12-01T06:26:36.249Z,83.73
2022-12-01T06:27:36.780Z,83.63
2022-12-01T06:28:37.369Z,83.63
2022-12-01T06:29:42.073Z,83.53
2022-12-01T06:30:38.445Z,83.53
2022-12-01T06:31:39.248Z,83.63
2022-12-01T06:32:39.816Z,83.63
2022-12-01T06:33:40.426Z,83.83
2022-12-01T06:34:41.962Z,83.73
2022-12-01T06:35:41.609Z,83.83
2022-12-01T06:36:42.123Z,83.73
2022-12-01T06:37:42.706Z,83.43
2022-12-01T06:38:43.461Z,83.33
2022-12-01T06:39:43.985Z,83.33
2022-12-01T06:40:44.542Z,83.39
2022-12-01T06:41:45.051Z,83.29
2022-12-01T06:42:46.329Z,83.18
2022-12-01T06:43:46.972Z,83.18
2022-12-01T06:44:47.019Z,83.39
2022-12-01T06:45:47.622Z,83.59
2022-12-01T06:46:48.187Z,83.69
2022-12-01T06:47:48.939Z,83.80
2022-12-01T06:48:49.523Z,83.76
2022-12-01T06:49:50.284Z,83.86
2022-12-01T06:50:51.009Z,83.96
2022-12-01T06:51:51.593Z,84.06
2022-12-01T06:52:52.130Z,84.06
2022-12-01T06:53:52.681Z,84.16
2022-12-01T06:54:53.220Z,84.16
2022-12-01T06:55:54.160Z,84.27
2022-12-01T06:56:55.086Z,84.27
2022-12-01T06:57:55.568Z,84.36
2022-12-01T06:58:56.419Z,84.27
2022-12-01T06:59:57.075Z,83.96
2022-12-01T07:00:58.702Z,83.76
2022-12-01T07:01:59.017Z,83.86
2022-12-01T07:02:59.724Z,83.96
2022-12-01T07:04:00.358Z,84.02
2022-12-01T07:05:00.879Z,84.12
2022-12-01T07:06:01.433Z,84.12
2022-12-01T07:07:01.960Z,84.02
2022-12-01T07:08:02.567Z,83.82
2022-12-01T07:09:03.167Z,83.72
2022-12-01T07:10:04.046Z,83.72
2022-12-01T07:11:04.568Z,83.82
2022-12-01T07:12:11.427Z,83.82
2022-12-01T07:13:05.944Z,83.78
2022-12-01T07:14:06.501Z,83.78
2022-12-01T07:15:07.034Z,83.88
2022-12-01T07:16:07.596Z,83.78
2022-12-01T07:17:08.553Z,83.78
2022-12-01T07:18:09.106Z,83.68
2022-12-01T07:19:09.684Z,83.58
2022-12-01T07:20:10.216Z,83.47
2022-12-01T07:21:10.749Z,83.27
2022-12-01T07:22:11.275Z,83.13
2022-12-01T07:23:11.788Z,83.13
2022-12-01T07:24:12.344Z,83.03
2022-12-01T07:25:12.880Z,83.03
2022-12-01T07:26:13.410Z,82.93
2022-12-01T07:27:13.929Z,82.93
2022-12-01T07:28:14.708Z,82.93
2022-12-01T07:29:15.307Z,83.03
2022-12-01T07:30:15.819Z,83.03
2022-12-01T07:31:16.499Z,83.13
2022-12-01T07:32:17.096Z,83.23
2022-12-01T07:33:25.713Z,83.23
2022-12-01T07:34:21.189Z,83.44
2022-12-01T07:35:22.101Z,83.54
2022-12-01T07:36:20.356Z,83.54
2022-12-01T07:37:21.583Z,83.40
2022-12-01T07:38:22.429Z,83.50
2022-12-01T07:39:22.653Z,83.40
2022-12-01T07:40:23.276Z,83.29
2022-12-01T07:41:23.816Z,83.19
2022-12-01T07:42:24.357Z,83.05
2022-12-01T07:43:24.917Z,83.05
2022-12-01T07:44:25.667Z,83.15
2022-12-01T07:45:26.176Z,83.15
2022-12-01T07:46:26.878Z,83.26
2022-12-01T07:47:27.489Z,83.05
2022-12-01T07:48:28.036Z,82.85
2022-12-01T07:49:28.624Z,82.61
2022-12-01T07:50:29.140Z,82.51
2022-12-01T07:51:29.998Z,82.51
2022-12-01T07:52:31.154Z,82.31
2022-12-01T07:53:31.173Z,82.21
2022-12-01T07:54:31.784Z,82.10
2022-12-01T07:55:32.342Z,81.96
2022-12-01T07:56:33.350Z,81.87
2022-12-01T07:57:33.361Z,81.76
2022-12-01T07:58:33.970Z,81.46
2022-12-01T07:59:35.725Z,80.45
2022-12-01T08:00:35.367Z,79.85
2022-12-01T08:01:39.271Z,79.54
2022-12-01T08:02:36.896Z,78.43
2022-12-01T08:03:51.488Z,77.62
2022-12-01T08:04:38.118Z,76.92
2022-12-01T08:05:38.632Z,76.58
2022-12-01T08:06:39.231Z,75.87
2022-12-01T08:07:39.787Z,76.01
2022-12-01T08:08:45.407Z,75.67
2022-12-01T08:09:41.014Z,75.87
2022-12-01T08:10:42.034Z,75.67
2022-12-01T08:11:50.715Z,76.07
2022-12-01T08:12:54.255Z,76.34
2022-12-01T08:13:44.413Z,76.54
2022-12-01T08:14:44.986Z,76.64
2022-12-01T08:15:48.204Z,76.54
2022-12-01T08:16:48.200Z,76.24
2022-12-01T08:17:50.693Z,75.63
2022-12-01T08:18:47.702Z,75.94
2022-12-01T08:19:48.569Z,75.84
2022-12-01T08:20:49.229Z,75.13
2022-12-01T08:21:49.757Z,74.63
2022-12-01T08:22:50.279Z,74.73
2022-12-01T08:23:51.218Z,74.46
2022-12-01T08:24:51.818Z,74.66
2022-12-01T08:25:52.342Z,74.87
2022-12-01T08:26:52.876Z,74.76
2022-12-01T08:27:53.405Z,74.56
2022-12-01T08:28:53.953Z,74.22
2022-12-01T08:29:54.548Z,74.46
2022-12-01T08:30:55.102Z,74.87
2022-12-01T08:31:55.870Z,75.37
2022-12-01T08:32:56.252Z,75.67
2022-12-01T08:33:56.959Z,75.87
2022-12-01T08:34:57.590Z,75.87
2022-12-01T08:35:58.110Z,75.77
2022-12-01T08:36:58.636Z,75.47
2022-12-01T08:37:59.158Z,74.96
2022-12-01T08:38:59.673Z,74.66
2022-12-01T08:40:00.368Z,74.66
2022-12-01T08:41:00.909Z,74.66
2022-12-01T08:42:01.437Z,74.96
2022-12-01T08:43:02.181Z,74.96
2022-12-01T08:44:02.766Z,74.96
2022-12-01T08:45:03.495Z,75.07
2022-12-01T08:46:04.339Z,75.37
2022-12-01T08:47:05.613Z,75.47
2022-12-01T08:48:06.423Z,75.47
2022-12-01T08:49:06.647Z,75.34
2022-12-01T08:50:07.673Z,75.13
2022-12-01T08:52:58.317Z,75.13
2022-12-01T08:54:14.861Z,75.13
2022-12-01T08:54:58.715Z,75.10
2022-12-01T08:56:00.513Z,74.90
2022-12-01T08:57:00.162Z,74.59
2022-12-01T08:58:00.823Z,74.49
2022-12-01T08:59:06.464Z,74.39
2022-12-01T09:00:02.243Z,74.26
2022-12-01T09:01:11.778Z,74.15
2022-12-01T09:02:06.932Z,74.15
2022-12-01T09:03:04.465Z,74.15
2022-12-01T09:04:05.482Z,74.05
2022-12-01T09:05:05.690Z,73.85
2022-12-01T09:06:06.314Z,73.45
2022-12-01T09:07:06.859Z,73.11
2022-12-01T09:08:07.851Z,72.74
2022-12-01T09:09:08.080Z,72.20
2022-12-01T09:10:08.645Z,72.51
2022-12-01T09:11:09.203Z,71.70
2022-12-01T09:12:10.815Z,71.40
2022-12-01T09:13:10.347Z,71.10
2022-12-01T09:14:10.893Z,70.50
2022-12-01T09:15:11.427Z,70.90
2022-12-01T09:16:12.139Z,71.10
2022-12-01T09:17:13.266Z,70.46
2022-12-01T09:18:13.801Z,70.56
2022-12-01T09:19:17.907Z,70.36
2022-12-01T09:20:15.621Z,70.56
2022-12-01T09:21:16.704Z,69.56
2022-12-01T09:22:16.779Z,69.85
2022-12-01T09:23:17.290Z,69.15
2022-12-01T09:24:17.808Z,68.75
2022-12-01T09:25:18.329Z,68.04
2022-12-01T09:26:18.886Z,67.44
2022-12-01T09:27:19.436Z,67.21
2022-12-01T09:28:19.953Z,66.80
2022-12-01T09:29:20.497Z,66.50
2022-12-01T09:30:21.123Z,66.50
2022-12-01T09:31:22.026Z,64.89
2022-12-01T09:32:23.061Z,63.39
2022-12-01T09:33:24.681Z,63.15
2022-12-01T09:34:23.758Z,63.76
2022-12-01T09:35:24.276Z,65.16
2022-12-01T09:36:24.944Z,65.16
2022-12-01T09:37:25.484Z,65.56
2022-12-01T09:38:26.008Z,66.27
2022-12-01T09:39:26.606Z,65.67
2022-12-01T09:40:27.197Z,65.77
2022-12-01T09:41:27.971Z,66.27
2022-12-01T09:42:35.090Z,66.27
2022-12-01T09:43:29.822Z,66.97
2022-12-01T09:44:30.384Z,66.87
2022-12-01T09:45:30.942Z,66.07
2022-12-01T09:46:31.561Z,65.77
2022-12-01T09:47:32.106Z,66.17
2022-12-01T09:48:32.621Z,65.30
2022-12-01T09:49:34.987Z,65.80
2022-12-01T09:50:33.675Z,65.59
2022-12-01T09:51:34.280Z,66.00
2022-12-01T09:52:34.815Z,65.70
2022-12-01T09:53:37.128Z,64.29
2022-12-01T09:54:36.163Z,64.59
2022-12-01T09:55:36.682Z,64.59
2022-12-01T09:56:37.329Z,64.99
2022-12-01T09:57:37.846Z,65.77
2022-12-01T09:58:38.377Z,66.17
2022-12-01T09:59:38.906Z,65.56
2022-12-01T10:00:39.474Z,66.17
2022-12-01T10:01:40.118Z,66.07
2022-12-01T10:02:45.544Z,65.47
2022-12-01T10:03:41.583Z,64.26
2022-12-01T10:04:42.220Z,63.96
2022-12-01T10:06:02.979Z,63.76
2022-12-01T10:06:43.813Z,62.05
2022-12-01T10:07:44.423Z,62.45
2022-12-01T10:08:45.015Z,61.44
2022-12-01T10:09:45.534Z,61.44
2022-12-01T10:10:46.048Z,62.05
2022-12-01T10:11:46.594Z,61.41
2022-12-01T10:12:47.133Z,61.14
2022-12-01T10:13:47.662Z,61.31
2022-12-01T10:14:57.294Z,60.71
2022-12-01T10:15:48.787Z,60.91
2022-12-01T10:16:49.318Z,60.81
2022-12-01T10:17:49.836Z,62.12
2022-12-01T10:18:50.362Z,62.32
2022-12-01T10:19:51.339Z,62.62
2022-12-01T10:20:51.602Z,62.62
2022-12-01T10:21:52.248Z,62.52
2022-12-01T10:22:52.815Z,63.22
2022-12-01T10:23:53.333Z,63.53
2022-12-01T10:24:53.851Z,63.02
2022-12-01T10:25:54.378Z,63.49
2022-12-01T10:26:54.996Z,62.89
2022-12-01T10:27:55.525Z,63.09
2022-12-01T10:28:56.034Z,63.09
2022-12-01T10:29:56.550Z,63.59
2022-12-01T10:30:57.070Z,62.89
2022-12-01T10:32:08.051Z,60.18
2022-12-01T10:33:01.260Z,60.48
2022-12-01T10:33:59.117Z,59.08
2022-12-01T10:35:00.210Z,59.47
2022-12-01T10:36:00.237Z,60.68
2022-12-01T10:37:01.053Z,61.29
2022-12-01T10:38:01.679Z,60.25
2022-12-01T10:39:06.843Z,59.34
2022-12-01T10:40:02.869Z,58.84
2022-12-01T10:41:03.378Z,58.64
2022-12-01T10:42:03.957Z,59.14
2022-12-01T10:43:10.994Z,60.25
2022-12-01T10:44:04.995Z,60.25
2022-12-01T10:45:05.497Z,59.95
2022-12-01T10:46:06.095Z,58.64
2022-12-01T10:47:06.645Z,58.44
2022-12-01T10:48:07.208Z,59.05
2022-12-01T10:49:07.721Z,59.75
2022-12-01T10:50:08.240Z,59.45
2022-12-01T10:51:08.755Z,59.25
2022-12-01T10:52:12.361Z,59.25
2022-12-01T10:53:09.912Z,59.65
2022-12-01T10:54:18.034Z,60.05
2022-12-01T10:55:11.036Z,59.95
2022-12-01T10:56:11.588Z,59.45
2022-12-01T10:57:12.111Z,59.82
2022-12-01T10:58:12.666Z,59.72
2022-12-01T10:59:13.189Z,58.01
2022-12-01T11:00:30.146Z,58.22
2022-12-01T11:01:14.857Z,59.62
2022-12-01T11:02:15.842Z,59.32
2022-12-01T11:03:21.353Z,59.72
2022-12-01T11:04:16.972Z,59.72
2022-12-01T11:05:17.494Z,60.62
2022-12-01T11:06:18.016Z,59.62
2022-12-01T11:07:18.581Z,59.62
2022-12-01T11:08:19.164Z,59.62
2022-12-01T11:09:25.754Z,59.32
2022-12-01T11:10:20.555Z,59.29
2022-12-01T11:11:21.087Z,57.59
2022-12-01T11:12:21.617Z,57.18
2022-12-01T11:13:22.177Z,57.41
2022-12-01T11:14:22.707Z,57.41
2022-12-01T11:15:23.229Z,55.60
2022-12-01T11:16:25.799Z,54.80
2022-12-01T11:17:25.635Z,54.47
2022-12-01T11:18:31.336Z,55.08
2022-12-01T11:19:27.787Z,56.18
2022-12-01T11:20:26.566Z,56.68
2022-12-01T11:21:27.136Z,55.68
2022-12-01T11:22:27.671Z,56.58
2022-12-01T11:23:28.363Z,55.68
2022-12-01T11:24:28.977Z,55.88
2022-12-01T11:25:29.491Z,56.18
2022-12-01T11:26:30.009Z,56.08
2022-12-01T11:27:30.522Z,56.18
2022-12-01T11:28:31.071Z,55.58
2022-12-01T11:29:31.601Z,56.58
2022-12-01T11:30:32.121Z,55.88
2022-12-01T11:31:32.709Z,56.58
2022-12-01T11:32:33.248Z,56.28
2022-12-01T11:33:34.332Z,56.38
2022-12-01T11:34:34.372Z,55.18
2022-12-01T11:35:34.893Z,53.97
2022-12-01T11:36:52.865Z,54.88
2022-12-01T11:37:36.319Z,55.68
2022-12-01T11:38:36.908Z,55.85
2022-12-01T11:39:37.425Z,55.25
2022-12-01T11:40:37.934Z,53.95
2022-12-01T11:41:38.444Z,54.05
2022-12-01T11:43:01.133Z,53.55
2022-12-01T11:43:45.046Z,53.57
2022-12-01T11:44:51.322Z,53.85
2022-12-01T11:45:41.605Z,55.25
2022-12-01T11:46:50.298Z,54.75
2022-12-01T11:47:43.016Z,54.17
2022-12-01T11:48:43.585Z,54.38
2022-12-01T11:49:47.268Z,54.58
2022-12-01T11:50:45.066Z,55.08
2022-12-01T11:51:46.609Z,55.40
2022-12-01T11:52:46.716Z,56.21
2022-12-01T11:53:46.790Z,56.51
2022-12-01T11:54:47.313Z,55.10
2022-12-01T11:55:47.833Z,54.60
2022-12-01T11:57:04.402Z,53.50
2022-12-01T11:57:49.217Z,54.30
2022-12-01T11:58:49.871Z,55.20
2022-12-01T11:59:50.662Z,56.01
2022-12-01T12:00:51.310Z,54.90
2022-12-01T12:01:51.896Z,55.60
2022-12-01T12:02:52.410Z,55.51
2022-12-01T12:03:52.995Z,56.91
2022-12-01T12:04:53.535Z,56.91
2022-12-01T12:05:57.679Z,57.11
2022-12-01T12:06:54.923Z,58.22
2022-12-01T12:07:55.548Z,58.72
2022-12-01T12:08:56.182Z,58.92
2022-12-01T12:09:56.716Z,59.09
2022-12-01T12:10:57.303Z,60.10
2022-12-01T12:11:57.832Z,60.60
2022-12-01T12:12:58.352Z,59.39
2022-12-01T12:13:58.894Z,58.69
2022-12-01T12:14:59.491Z,59.42
2022-12-01T12:16:00.003Z,59.49
2022-12-01T12:17:03.399Z,60.39
2022-12-01T12:18:01.507Z,60.89
2022-12-01T12:19:02.088Z,60.89
2022-12-01T12:20:10.236Z,60.69
2022-12-01T12:21:03.466Z,59.69
2022-12-01T12:22:03.989Z,59.39
2022-12-01T12:23:24.446Z,58.79
2022-12-01T12:24:05.606Z,58.99
2022-12-01T12:25:11.805Z,58.99
2022-12-01T12:26:11.015Z,58.62
2022-12-01T12:27:09.287Z,57.81
2022-12-01T12:28:08.532Z,57.31
2022-12-01T12:29:13.637Z,58.42
2022-12-01T12:30:09.936Z,58.01
2022-12-01T12:31:10.484Z,56.51
2022-12-01T12:32:11.027Z,55.91
2022-12-01T12:33:11.550Z,56.61
2022-12-01T12:34:12.152Z,56.61
2022-12-01T12:35:12.667Z,56.81
2022-12-01T12:36:13.213Z,56.81
2022-12-01T12:37:13.740Z,57.11
2022-12-01T12:38:14.249Z,57.68
2022-12-01T12:39:16.772Z,57.18
2022-12-01T12:40:15.659Z,57.48
2022-12-01T12:41:16.184Z,57.08
2022-12-01T12:42:16.704Z,56.98
2022-12-01T12:43:17.252Z,56.48
2022-12-01T12:44:17.846Z,57.59
2022-12-01T12:45:18.379Z,57.79
2022-12-01T12:46:18.961Z,58.89
2022-12-01T12:47:19.477Z,59.77
2022-12-01T12:48:19.991Z,58.36
2022-12-01T12:49:21.037Z,59.06
2022-12-01T12:50:21.271Z,59.26
2022-12-01T12:51:21.823Z,55.35
2022-12-01T12:52:22.386Z,54.05
2022-12-01T12:53:22.915Z,57.06
2022-12-01T12:54:23.763Z,59.86
2022-12-01T12:55:24.340Z,58.06
2022-12-01T12:56:24.862Z,59.79
2022-12-01T12:57:25.379Z,60.80
2022-12-01T12:58:25.899Z,61.40
2022-12-01T12:59:26.455Z,60.39
2022-12-01T13:00:26.959Z,60.69
2022-12-01T13:01:27.525Z,56.48
2022-12-01T13:02:28.126Z,53.20